• Join FlightAware (Why Join?)
  • Login
  • US Flag 
06:22PM EDT


 

Airport Tracker/Info


-or-


 

Live Flight TrackerFlight Track Log ✈ UAL395 ✈ 17-Jun-2013 ✈ KIAD - KORD

Flight Track Log - Related Links

Times and Time Zones

All times are in EDT time to prevent confusion due to time zone crossing. See the UAL395 flight status page for this flight to view local times or setup timezone preferences in your user account.

Time Position Orientation Groundspeed Altitude Reporting Facility
EDT Latitude Longitude Course Direction KTS MPH feet Rate Location/Type
02:34PM 38.9833 -77.4833 270° West 177 204 1,700  Level Potomac TRACON
02:35PM 38.9667 -77.5500 252° West 245 282 4,000 2,040 Climbing Potomac TRACON
02:37PM 38.8828 -77.9649 293° West  Level FlightAware Approximate
02:37PM 38.9122 -77.6697 240° Southwest 259 298 6,800  Level Washington Center
02:38PM 38.9147 -78.0920 288° West  Level FlightAware Approximate
02:38PM 38.8919 -77.7492 252° West 259 298 9,000  Level Washington Center
02:39PM 38.9500 -78.2157 270° West  Level FlightAware Approximate
02:39PM 38.8797 -77.8528 261° West 264 304 12,300  Level Washington Center
02:40PM 38.8906 -77.9333 280° West 269 310 14,700 2,340 Climbing Washington Center
02:41PM 38.9194 -78.0542 287° West 281 323 17,000 2,580 Climbing Washington Center
02:42PM 38.9486 -78.1619 289° West 300 345 19,900 2,160 Climbing Washington Center
02:43PM 38.9647 -78.2747 280° West 310 357 21,400 1,260 Climbing Washington Center
02:44PM 38.9742 -78.4058 275° West 334 384 22,400 1,500 Climbing Washington Center
02:45PM 38.9817 -78.5397 274° West 366 421 24,500 1,560 Climbing Washington Center
02:46PM 38.9928 -78.6736 276° West 378 435 25,600 1,200 Climbing Washington Center
02:47PM 39.0017 -78.8131 275° West 385 443 26,900 1,080 Climbing Washington Center
02:48PM 39.0103 -78.9550 275° West 397 457 27,800 540 Climbing Washington Center
02:49PM 39.0208 -79.0917 276° West 397 457 28,000 60 Climbing Washington Center
02:50PM 39.0294 -79.2283 275° West 397 457 28,000  Level Washington Center
02:51PM 39.0375 -79.3678 274° West 397 457 28,000  Level Washington Center
02:52PM 39.0478 -79.5047 276° West 390 449 28,000  Level Washington Center
02:53PM 39.0564 -79.6256 275° West 390 449 28,000  Level Washington Center
02:54PM 39.0642 -79.7650 274° West 390 449 28,000  Level Washington Center
02:55PM 39.0675 -79.9100 272° West 387 445 28,000  Level Indianapolis Center
02:56PM 39.0742 -80.0447 274° West 388 447 28,000  Level Indianapolis Center
02:57PM 39.0831 -80.1858 275° West 387 445 28,000  Level Indianapolis Center
02:58PM 39.0894 -80.3239 273° West 387 445 28,000  Level Indianapolis Center
02:59PM 39.0972 -80.4606 274° West 384 442 28,000 600 Level Indianapolis Center
03:00PM 39.1328 -80.5911 289° West 405 466 29,300 1,380 Climbing Indianapolis Center
03:01PM 39.1975 -80.7425 299° West 406 467 30,900 1,260 Climbing Indianapolis Center
03:02PM 39.2528 -80.8714 299° West 409 471 32,000 480 Climbing Indianapolis Center
03:03PM 39.3069 -80.9964 299° West 402 463 32,000 -420 Level Indianapolis Center
03:04PM 39.3594 -81.1242 298° West 406 467 31,200 -1,020 Descending Indianapolis Center
03:05PM 39.3636 -81.2650 272° West 400 460 30,000 -600 Descending Indianapolis Center
03:06PM 39.3514 -81.4061 264° West 398 458 30,000  Level Indianapolis Center
03:07PM 39.3386 -81.5719 264° West 390 449 30,000  Level Indianapolis Center
03:08PM 39.3292 -81.7128 265° West 394 453 30,000  Level Indianapolis Center
03:09PM 39.3186 -81.8553 265° West 400 460 30,000  Level Indianapolis Center
03:10PM 39.3092 -81.9953 265° West 396 456 30,000  Level Indianapolis Center
03:11PM 39.2997 -82.1364 265° West 396 456 30,000  Level Indianapolis Center
03:12PM 39.3064 -82.3031 273° West 399 459 30,000  Level Indianapolis Center
03:13PM 39.3719 -82.4222 305° West 405 466 30,000 -60 Level Indianapolis Center
03:14PM 39.4339 -82.5264 308° West 407 468 29,900 -60 Descending Indianapolis Center
03:15PM 39.5167 -82.6611 309° West 406 467 29,900  Level Indianapolis Center
03:16PM 39.5864 -82.7769 308° West 405 466 29,900  Level Indianapolis Center
03:17PM 39.6556 -82.8933 308° West 405 466 30,000  Climbing Indianapolis Center
03:18PM 39.7253 -83.0097 308° West 406 467 30,000  Level Indianapolis Center
03:19PM 39.7939 -83.1250 308° West 403 464 30,000 -60 Level Indianapolis Center
03:20PM 39.8625 -83.2394 308° West 401 461 29,900 -60 Descending Indianapolis Center
03:21PM 39.9422 -83.3725 308° West 402 463 29,900  Level Indianapolis Center
03:22PM 40.0083 -83.4875 307° West 401 461 29,900  Level Indianapolis Center
03:23PM 40.0756 -83.6025 307° West 399 459 30,000  Climbing Indianapolis Center
03:24PM 40.1417 -83.7172 307° West 396 456 30,000  Level Indianapolis Center
03:26PM 40.2103 -83.8331 308° West 399 459 30,000  Level Indianapolis Center
03:27PM 40.2886 -83.9686 307° West 397 457 30,000  Level Indianapolis Center
03:28PM 40.3564 -84.0856 307° West 399 459 30,000  Level Indianapolis Center
03:29PM 40.4222 -84.2019 307° West 396 456 30,000 -60 Level Indianapolis Center
03:30PM 40.4892 -84.3175 307° West 393 452 29,900  Descending Indianapolis Center
03:31PM 40.5558 -84.4353 307° West 397 457 30,000  Climbing Indianapolis Center
03:32PM 40.6231 -84.5531 307° West 399 459 29,900 -60 Descending Indianapolis Center
03:33PM 40.6892 -84.6697 307° West 394 453 29,900  Level Indianapolis Center
03:34PM 40.7547 -84.7872 306° West 394 453 29,900  Level Indianapolis Center
03:35PM 40.8283 -84.9181 307° West 392 451 30,000 60 Climbing Indianapolis Center
03:35PM 40.8594 -84.9700 308° West 393 452 30,000  Level Chicago Center
03:36PM 40.9125 -85.0953 299° West 394 453 30,000  Level Chicago Center
03:37PM 40.9744 -85.2486 298° West 392 451 30,000  Level Chicago Center
03:38PM 41.0283 -85.3844 298° West 409 471 30,000  Level Chicago Center
03:40PM 41.0825 -85.5200 298° West 415 478 30,000 -480 Level Chicago Center
03:41PM 41.1342 -85.6542 297° West 409 471 29,000 -1,500 Descending Chicago Center
03:42PM 41.1883 -85.7900 298° West 412 474 26,900 -2,100 Descending Chicago Center
03:43PM 41.2394 -85.9253 297° West 411 473 24,700 -2,220 Descending Chicago Center
03:44PM 41.2847 -86.0497 296° West 380 437 22,400 -2,280 Descending Chicago Center
03:45PM 41.3272 -86.1972 291° West 365 420 20,000 -1,200 Descending Chicago Center
03:46PM 41.3872 -86.3086 306° West 367 422 20,000  Level Chicago Center
03:47PM 41.4469 -86.4158 307° West 362 417 20,000 -1,140 Level Chicago Center
03:48PM 41.5075 -86.5225 307° West 361 415 17,700 -2,280 Descending Chicago Center
03:49PM 41.5650 -86.6289 306° West 355 409 15,300 -2,520 Descending Chicago Center
03:50PM 41.6297 -86.7436 307° West 345 397 12,600 -1,620 Descending Chicago Center
03:51PM 41.7086 -86.8006 332° Northwest 348 400 12,000 -660 Descending Chicago Center
03:52PM 41.8039 -86.8144 354° North 348 400 11,300 -540 Descending Chicago Center
03:53PM 41.8903 -86.8614 338° Northwest 345 397 10,900 -600 Descending Chicago Center
03:54PM 41.9392 -86.9828 298° West 310 357 10,100 -780 Descending Chicago Center
03:55PM 41.9739 -87.0703 298° West 275 316 9,400 -540 Descending Chicago Center
03:56PM 41.9819 -87.1650 277° West 268 308 9,000 -480 Descending Chicago Center
03:57PM 41.9822 -87.2650 270° West 270 311 8,500 -660 Descending Chicago Center
03:58PM 41.9836 -87.3842 271° West 269 310 7,700 -780 Descending Chicago Center
03:59PM 41.9819 -87.4800 269° West 261 300 6,900 -900 Descending Chicago Center
04:00PM 41.9831 -87.5792 271° West 266 306 5,900 -1,260 Descending Chicago Center
04:01PM 41.9844 -87.6681 271° West 247 284 4,400 -1,440 Descending Chicago Center
04:02PM 41.9839 -87.7533 270° West 235 270 3,000 -1,380 Descending Chicago Center
04:03PM 41.9839 -87.8264 270° West 188 216 1,600 -900 Descending Chicago Center
04:04PM 41.9836 -87.8700 270° West 161 185 1,200 -420 Descending Chicago Center
04:06PM 41.9667 -87.9000 270° West  Level FlightAware Approximate